sensor_id;sensor_type;location;lat;lon;timestamp;P1;durP1;ratioP1;P2;durP2;ratioP2
62861;SDS011;48953;53.110;5.592;2023-05-07T00:02:26;20.88;;;13.77;;
62861;SDS011;48953;53.110;5.592;2023-05-07T00:04:52;20.88;;;12.93;;
62861;SDS011;48953;53.110;5.592;2023-05-07T00:07:18;20.35;;;14.63;;
62861;SDS011;48953;53.110;5.592;2023-05-07T00:09:44;22.27;;;14.43;;
62861;SDS011;48953;53.110;5.592;2023-05-07T00:12:10;23.63;;;14.55;;
62861;SDS011;48953;53.110;5.592;2023-05-07T00:14:36;21.00;;;14.23;;
62861;SDS011;48953;53.110;5.592;2023-05-07T00:17:02;22.95;;;15.43;;
62861;SDS011;48953;53.110;5.592;2023-05-07T00:19:28;22.30;;;14.02;;
62861;SDS011;48953;53.110;5.592;2023-05-07T00:21:54;22.52;;;14.80;;
62861;SDS011;48953;53.110;5.592;2023-05-07T00:24:20;21.38;;;14.35;;
62861;SDS011;48953;53.110;5.592;2023-05-07T00:26:46;18.02;;;12.23;;
62861;SDS011;48953;53.110;5.592;2023-05-07T00:29:12;22.30;;;15.18;;
62861;SDS011;48953;53.110;5.592;2023-05-07T00:31:38;23.20;;;15.32;;
62861;SDS011;48953;53.110;5.592;2023-05-07T00:34:04;20.83;;;14.65;;
62861;SDS011;48953;53.110;5.592;2023-05-07T00:36:31;20.48;;;13.38;;
62861;SDS011;48953;53.110;5.592;2023-05-07T00:38:58;23.38;;;13.93;;
62861;SDS011;48953;53.110;5.592;2023-05-07T00:41:25;18.65;;;12.50;;
62861;SDS011;48953;53.110;5.592;2023-05-07T00:43:51;20.58;;;13.90;;
62861;SDS011;48953;53.110;5.592;2023-05-07T00:46:17;22.30;;;14.82;;
62861;SDS011;48953;53.110;5.592;2023-05-07T00:48:44;23.45;;;13.52;;
62861;SDS011;48953;53.110;5.592;2023-05-07T00:51:10;20.30;;;13.73;;
62861;SDS011;48953;53.110;5.592;2023-05-07T00:53:37;18.52;;;13.20;;
62861;SDS011;48953;53.110;5.592;2023-05-07T00:56:03;19.85;;;13.73;;
62861;SDS011;48953;53.110;5.592;2023-05-07T00:58:31;21.45;;;12.52;;
62861;SDS011;48953;53.110;5.592;2023-05-07T01:00:57;23.67;;;15.25;;
62861;SDS011;48953;53.110;5.592;2023-05-07T01:03:24;23.73;;;14.85;;
62861;SDS011;48953;53.110;5.592;2023-05-07T01:05:50;22.30;;;15.07;;
62861;SDS011;48953;53.110;5.592;2023-05-07T01:08:18;22.95;;;14.85;;
62861;SDS011;48953;53.110;5.592;2023-05-07T01:10:44;22.17;;;14.18;;
62861;SDS011;48953;53.110;5.592;2023-05-07T01:13:10;21.48;;;15.13;;
62861;SDS011;48953;53.110;5.592;2023-05-07T01:15:37;22.45;;;15.57;;
62861;SDS011;48953;53.110;5.592;2023-05-07T01:18:06;24.70;;;14.80;;
62861;SDS011;48953;53.110;5.592;2023-05-07T01:20:32;22.83;;;14.75;;
62861;SDS011;48953;53.110;5.592;2023-05-07T01:22:58;20.75;;;14.25;;
62861;SDS011;48953;53.110;5.592;2023-05-07T01:25:26;22.40;;;13.80;;
62861;SDS011;48953;53.110;5.592;2023-05-07T01:27:52;23.33;;;13.77;;
62861;SDS011;48953;53.110;5.592;2023-05-07T01:30:18;23.90;;;14.70;;
62861;SDS011;48953;53.110;5.592;2023-05-07T01:32:48;20.95;;;13.60;;
62861;SDS011;48953;53.110;5.592;2023-05-07T01:35:18;21.30;;;12.60;;
62861;SDS011;48953;53.110;5.592;2023-05-07T01:37:45;23.05;;;13.88;;
62861;SDS011;48953;53.110;5.592;2023-05-07T01:40:12;22.95;;;14.10;;
62861;SDS011;48953;53.110;5.592;2023-05-07T01:42:38;19.98;;;13.25;;
62861;SDS011;48953;53.110;5.592;2023-05-07T01:45:05;24.42;;;13.32;;
62861;SDS011;48953;53.110;5.592;2023-05-07T01:47:31;24.65;;;13.63;;
62861;SDS011;48953;53.110;5.592;2023-05-07T01:49:58;24.23;;;13.80;;
62861;SDS011;48953;53.110;5.592;2023-05-07T01:52:24;19.75;;;13.13;;
62861;SDS011;48953;53.110;5.592;2023-05-07T01:54:50;20.00;;;14.18;;
62861;SDS011;48953;53.110;5.592;2023-05-07T01:57:16;20.67;;;13.05;;
62861;SDS011;48953;53.110;5.592;2023-05-07T01:59:42;19.58;;;12.55;;
62861;SDS011;48953;53.110;5.592;2023-05-07T02:02:08;17.75;;;12.20;;
62861;SDS011;48953;53.110;5.592;2023-05-07T02:04:34;17.63;;;11.23;;
62861;SDS011;48953;53.110;5.592;2023-05-07T02:07:00;19.40;;;12.13;;
62861;SDS011;48953;53.110;5.592;2023-05-07T02:09:26;21.13;;;13.02;;
62861;SDS011;48953;53.110;5.592;2023-05-07T02:11:52;19.48;;;11.85;;
62861;SDS011;48953;53.110;5.592;2023-05-07T02:14:18;17.42;;;12.60;;
62861;SDS011;48953;53.110;5.592;2023-05-07T02:16:45;18.77;;;12.38;;
62861;SDS011;48953;53.110;5.592;2023-05-07T02:19:11;19.20;;;12.23;;
62861;SDS011;48953;53.110;5.592;2023-05-07T02:21:37;21.08;;;13.13;;
62861;SDS011;48953;53.110;5.592;2023-05-07T02:24:03;19.45;;;12.60;;
62861;SDS011;48953;53.110;5.592;2023-05-07T02:26:29;19.95;;;12.82;;
62861;SDS011;48953;53.110;5.592;2023-05-07T02:28:55;20.20;;;13.25;;
62861;SDS011;48953;53.110;5.592;2023-05-07T02:31:21;21.35;;;12.15;;
62861;SDS011;48953;53.110;5.592;2023-05-07T02:33:47;19.98;;;12.82;;
62861;SDS011;48953;53.110;5.592;2023-05-07T02:36:13;19.95;;;12.07;;
62861;SDS011;48953;53.110;5.592;2023-05-07T02:38:39;22.17;;;13.27;;
62861;SDS011;48953;53.110;5.592;2023-05-07T02:41:05;22.95;;;13.68;;
62861;SDS011;48953;53.110;5.592;2023-05-07T02:43:31;23.63;;;14.75;;
62861;SDS011;48953;53.110;5.592;2023-05-07T02:46:07;21.00;;;13.93;;
62861;SDS011;48953;53.110;5.592;2023-05-07T02:48:33;20.33;;;13.68;;
62861;SDS011;48953;53.110;5.592;2023-05-07T02:50:59;20.63;;;13.80;;
62861;SDS011;48953;53.110;5.592;2023-05-07T02:53:26;18.77;;;13.68;;
62861;SDS011;48953;53.110;5.592;2023-05-07T02:55:52;20.42;;;14.07;;
62861;SDS011;48953;53.110;5.592;2023-05-07T02:58:19;21.45;;;14.32;;
62861;SDS011;48953;53.110;5.592;2023-05-07T03:00:45;21.60;;;14.35;;
62861;SDS011;48953;53.110;5.592;2023-05-07T03:03:11;23.42;;;14.43;;
62861;SDS011;48953;53.110;5.592;2023-05-07T03:05:37;27.63;;;15.98;;
62861;SDS011;48953;53.110;5.592;2023-05-07T03:08:03;29.15;;;16.30;;
62861;SDS011;48953;53.110;5.592;2023-05-07T03:10:29;27.10;;;16.58;;
62861;SDS011;48953;53.110;5.592;2023-05-07T03:12:58;25.10;;;16.15;;
62861;SDS011;48953;53.110;5.592;2023-05-07T03:15:25;23.83;;;15.30;;
62861;SDS011;48953;53.110;5.592;2023-05-07T03:17:51;28.83;;;17.77;;
62861;SDS011;48953;53.110;5.592;2023-05-07T03:20:17;25.38;;;16.10;;
62861;SDS011;48953;53.110;5.592;2023-05-07T03:22:43;24.15;;;15.88;;
62861;SDS011;48953;53.110;5.592;2023-05-07T03:25:09;23.48;;;15.68;;
62861;SDS011;48953;53.110;5.592;2023-05-07T03:27:35;24.05;;;16.90;;
62861;SDS011;48953;53.110;5.592;2023-05-07T03:30:01;27.55;;;17.10;;
62861;SDS011;48953;53.110;5.592;2023-05-07T03:32:27;27.70;;;18.02;;
62861;SDS011;48953;53.110;5.592;2023-05-07T03:34:53;28.17;;;17.92;;
62861;SDS011;48953;53.110;5.592;2023-05-07T03:37:19;28.70;;;17.75;;
62861;SDS011;48953;53.110;5.592;2023-05-07T03:39:45;27.80;;;18.27;;
62861;SDS011;48953;53.110;5.592;2023-05-07T03:42:11;29.88;;;17.75;;
62861;SDS011;48953;53.110;5.592;2023-05-07T03:44:36;30.38;;;17.75;;
62861;SDS011;48953;53.110;5.592;2023-05-07T03:47:03;25.58;;;17.23;;
62861;SDS011;48953;53.110;5.592;2023-05-07T03:49:29;31.67;;;18.25;;
62861;SDS011;48953;53.110;5.592;2023-05-07T03:51:55;27.83;;;18.77;;
62861;SDS011;48953;53.110;5.592;2023-05-07T03:54:21;28.30;;;19.50;;
62861;SDS011;48953;53.110;5.592;2023-05-07T03:56:48;30.88;;;20.52;;
62861;SDS011;48953;53.110;5.592;2023-05-07T03:59:14;26.65;;;17.98;;
62861;SDS011;48953;53.110;5.592;2023-05-07T04:01:39;30.77;;;19.88;;
62861;SDS011;48953;53.110;5.592;2023-05-07T04:04:05;30.75;;;19.25;;
62861;SDS011;48953;53.110;5.592;2023-05-07T04:06:31;27.77;;;18.90;;
62861;SDS011;48953;53.110;5.592;2023-05-07T04:08:57;29.13;;;18.83;;
62861;SDS011;48953;53.110;5.592;2023-05-07T04:11:23;29.55;;;17.65;;
62861;SDS011;48953;53.110;5.592;2023-05-07T04:13:50;30.20;;;20.50;;
62861;SDS011;48953;53.110;5.592;2023-05-07T04:16:15;29.00;;;18.58;;
62861;SDS011;48953;53.110;5.592;2023-05-07T04:18:41;29.25;;;18.92;;
62861;SDS011;48953;53.110;5.592;2023-05-07T04:21:17;31.45;;;19.17;;
62861;SDS011;48953;53.110;5.592;2023-05-07T04:23:43;30.55;;;18.35;;
62861;SDS011;48953;53.110;5.592;2023-05-07T04:26:10;30.58;;;18.70;;
62861;SDS011;48953;53.110;5.592;2023-05-07T04:28:36;32.83;;;18.98;;
62861;SDS011;48953;53.110;5.592;2023-05-07T04:31:02;36.25;;;19.90;;
62861;SDS011;48953;53.110;5.592;2023-05-07T04:33:28;29.77;;;19.58;;
62861;SDS011;48953;53.110;5.592;2023-05-07T04:35:54;28.70;;;18.67;;
62861;SDS011;48953;53.110;5.592;2023-05-07T04:38:22;30.60;;;18.88;;
62861;SDS011;48953;53.110;5.592;2023-05-07T04:40:48;31.35;;;18.98;;
62861;SDS011;48953;53.110;5.592;2023-05-07T04:43:14;29.40;;;19.20;;
62861;SDS011;48953;53.110;5.592;2023-05-07T04:45:41;33.83;;;21.50;;
62861;SDS011;48953;53.110;5.592;2023-05-07T04:48:08;30.92;;;19.50;;
62861;SDS011;48953;53.110;5.592;2023-05-07T04:50:34;32.03;;;19.38;;
62861;SDS011;48953;53.110;5.592;2023-05-07T04:53:00;30.10;;;18.92;;
62861;SDS011;48953;53.110;5.592;2023-05-07T04:55:27;33.67;;;20.33;;
62861;SDS011;48953;53.110;5.592;2023-05-07T04:57:54;33.20;;;20.45;;
62861;SDS011;48953;53.110;5.592;2023-05-07T05:00:26;29.63;;;18.95;;
62861;SDS011;48953;53.110;5.592;2023-05-07T05:02:52;35.28;;;20.38;;
62861;SDS011;48953;53.110;5.592;2023-05-07T05:05:18;31.00;;;20.08;;
62861;SDS011;48953;53.110;5.592;2023-05-07T05:07:44;35.63;;;21.73;;
62861;SDS011;48953;53.110;5.592;2023-05-07T05:10:10;33.55;;;19.13;;
62861;SDS011;48953;53.110;5.592;2023-05-07T05:12:36;31.92;;;19.98;;
62861;SDS011;48953;53.110;5.592;2023-05-07T05:15:03;34.58;;;20.25;;
62861;SDS011;48953;53.110;5.592;2023-05-07T05:17:29;36.53;;;21.40;;
62861;SDS011;48953;53.110;5.592;2023-05-07T05:19:57;34.05;;;20.23;;
62861;SDS011;48953;53.110;5.592;2023-05-07T05:22:23;38.17;;;20.80;;
62861;SDS011;48953;53.110;5.592;2023-05-07T05:24:50;35.47;;;21.33;;
62861;SDS011;48953;53.110;5.592;2023-05-07T05:27:16;33.47;;;20.92;;
62861;SDS011;48953;53.110;5.592;2023-05-07T05:29:42;34.63;;;22.08;;
62861;SDS011;48953;53.110;5.592;2023-05-07T05:32:08;36.17;;;20.05;;
62861;SDS011;48953;53.110;5.592;2023-05-07T05:34:41;37.65;;;21.80;;
62861;SDS011;48953;53.110;5.592;2023-05-07T05:37:07;35.30;;;21.05;;
62861;SDS011;48953;53.110;5.592;2023-05-07T05:39:33;39.53;;;22.45;;
62861;SDS011;48953;53.110;5.592;2023-05-07T05:41:59;39.72;;;23.95;;
62861;SDS011;48953;53.110;5.592;2023-05-07T05:44:25;39.33;;;23.13;;
62861;SDS011;48953;53.110;5.592;2023-05-07T05:46:51;36.75;;;21.50;;
62861;SDS011;48953;53.110;5.592;2023-05-07T05:49:19;41.53;;;23.70;;
62861;SDS011;48953;53.110;5.592;2023-05-07T05:51:45;41.47;;;24.17;;
62861;SDS011;48953;53.110;5.592;2023-05-07T05:54:11;37.25;;;22.42;;
62861;SDS011;48953;53.110;5.592;2023-05-07T05:56:37;38.33;;;24.85;;
62861;SDS011;48953;53.110;5.592;2023-05-07T05:59:03;40.25;;;22.92;;
62861;SDS011;48953;53.110;5.592;2023-05-07T06:01:29;36.60;;;22.10;;
62861;SDS011;48953;53.110;5.592;2023-05-07T06:03:56;41.03;;;24.15;;
62861;SDS011;48953;53.110;5.592;2023-05-07T06:06:22;37.78;;;21.88;;
62861;SDS011;48953;53.110;5.592;2023-05-07T06:08:48;40.70;;;23.55;;
62861;SDS011;48953;53.110;5.592;2023-05-07T06:11:14;34.08;;;20.92;;
62861;SDS011;48953;53.110;5.592;2023-05-07T06:13:40;38.85;;;22.33;;
62861;SDS011;48953;53.110;5.592;2023-05-07T06:16:06;40.40;;;24.63;;
62861;SDS011;48953;53.110;5.592;2023-05-07T06:18:32;37.38;;;20.92;;
62861;SDS011;48953;53.110;5.592;2023-05-07T06:21:00;36.58;;;22.70;;
62861;SDS011;48953;53.110;5.592;2023-05-07T06:23:26;43.20;;;26.35;;
62861;SDS011;48953;53.110;5.592;2023-05-07T06:25:52;37.25;;;22.60;;
62861;SDS011;48953;53.110;5.592;2023-05-07T06:28:25;40.53;;;24.63;;
62861;SDS011;48953;53.110;5.592;2023-05-07T06:30:51;36.30;;;21.52;;
62861;SDS011;48953;53.110;5.592;2023-05-07T06:33:17;37.75;;;22.02;;
62861;SDS011;48953;53.110;5.592;2023-05-07T06:35:44;38.83;;;23.10;;
62861;SDS011;48953;53.110;5.592;2023-05-07T06:38:10;36.20;;;21.48;;
62861;SDS011;48953;53.110;5.592;2023-05-07T06:40:37;32.20;;;22.20;;
62861;SDS011;48953;53.110;5.592;2023-05-07T06:43:03;36.17;;;22.15;;
62861;SDS011;48953;53.110;5.592;2023-05-07T06:45:29;33.60;;;21.27;;
62861;SDS011;48953;53.110;5.592;2023-05-07T06:47:55;32.45;;;21.85;;
62861;SDS011;48953;53.110;5.592;2023-05-07T06:50:21;37.97;;;24.50;;
62861;SDS011;48953;53.110;5.592;2023-05-07T06:52:47;36.63;;;22.55;;
62861;SDS011;48953;53.110;5.592;2023-05-07T06:55:13;38.63;;;22.77;;
62861;SDS011;48953;53.110;5.592;2023-05-07T06:57:39;35.40;;;21.48;;
62861;SDS011;48953;53.110;5.592;2023-05-07T07:00:05;35.83;;;24.23;;
62861;SDS011;48953;53.110;5.592;2023-05-07T07:02:33;34.97;;;21.92;;
62861;SDS011;48953;53.110;5.592;2023-05-07T07:04:59;32.05;;;21.85;;
62861;SDS011;48953;53.110;5.592;2023-05-07T07:07:25;34.40;;;21.17;;
62861;SDS011;48953;53.110;5.592;2023-05-07T07:09:51;32.10;;;21.50;;
62861;SDS011;48953;53.110;5.592;2023-05-07T07:12:17;32.25;;;21.33;;
62861;SDS011;48953;53.110;5.592;2023-05-07T07:14:43;32.33;;;20.73;;
62861;SDS011;48953;53.110;5.592;2023-05-07T07:17:09;31.33;;;20.90;;
62861;SDS011;48953;53.110;5.592;2023-05-07T07:19:35;33.95;;;24.35;;
62861;SDS011;48953;53.110;5.592;2023-05-07T07:22:02;31.80;;;20.88;;
62861;SDS011;48953;53.110;5.592;2023-05-07T07:24:28;32.15;;;21.65;;
62861;SDS011;48953;53.110;5.592;2023-05-07T07:26:54;26.63;;;19.52;;
62861;SDS011;48953;53.110;5.592;2023-05-07T07:29:20;29.60;;;18.40;;
62861;SDS011;48953;53.110;5.592;2023-05-07T07:31:47;27.23;;;17.92;;
62861;SDS011;48953;53.110;5.592;2023-05-07T07:34:14;28.20;;;19.23;;
62861;SDS011;48953;53.110;5.592;2023-05-07T07:36:40;27.38;;;20.08;;
62861;SDS011;48953;53.110;5.592;2023-05-07T07:39:06;29.92;;;20.10;;
62861;SDS011;48953;53.110;5.592;2023-05-07T07:41:32;25.90;;;18.52;;
62861;SDS011;48953;53.110;5.592;2023-05-07T07:43:58;28.27;;;19.73;;
62861;SDS011;48953;53.110;5.592;2023-05-07T07:46:24;29.38;;;20.15;;
62861;SDS011;48953;53.110;5.592;2023-05-07T07:48:51;22.35;;;16.38;;
62861;SDS011;48953;53.110;5.592;2023-05-07T07:51:17;28.00;;;19.48;;
62861;SDS011;48953;53.110;5.592;2023-05-07T07:53:43;26.65;;;19.05;;
62861;SDS011;48953;53.110;5.592;2023-05-07T07:56:09;28.45;;;19.67;;
62861;SDS011;48953;53.110;5.592;2023-05-07T07:58:35;25.70;;;19.58;;
62861;SDS011;48953;53.110;5.592;2023-05-07T08:01:02;27.75;;;19.95;;
62861;SDS011;48953;53.110;5.592;2023-05-07T08:03:28;28.15;;;19.02;;
62861;SDS011;48953;53.110;5.592;2023-05-07T08:05:57;26.88;;;19.25;;
62861;SDS011;48953;53.110;5.592;2023-05-07T08:08:23;26.52;;;19.00;;
62861;SDS011;48953;53.110;5.592;2023-05-07T08:10:49;26.02;;;18.70;;
62861;SDS011;48953;53.110;5.592;2023-05-07T08:13:15;22.60;;;17.17;;
62861;SDS011;48953;53.110;5.592;2023-05-07T08:15:41;22.25;;;17.77;;
62861;SDS011;48953;53.110;5.592;2023-05-07T08:18:07;23.17;;;18.10;;
62861;SDS011;48953;53.110;5.592;2023-05-07T08:20:33;25.42;;;19.38;;
62861;SDS011;48953;53.110;5.592;2023-05-07T08:23:04;24.42;;;17.52;;
62861;SDS011;48953;53.110;5.592;2023-05-07T08:25:32;19.80;;;15.57;;
62861;SDS011;48953;53.110;5.592;2023-05-07T08:27:58;24.52;;;18.42;;
62861;SDS011;48953;53.110;5.592;2023-05-07T08:30:24;24.33;;;18.73;;
62861;SDS011;48953;53.110;5.592;2023-05-07T08:32:50;23.05;;;17.10;;
62861;SDS011;48953;53.110;5.592;2023-05-07T08:35:16;22.02;;;17.92;;
62861;SDS011;48953;53.110;5.592;2023-05-07T08:37:42;24.75;;;16.65;;
62861;SDS011;48953;53.110;5.592;2023-05-07T08:40:09;22.00;;;17.52;;
62861;SDS011;48953;53.110;5.592;2023-05-07T08:42:35;21.67;;;17.10;;
62861;SDS011;48953;53.110;5.592;2023-05-07T08:45:02;20.85;;;17.25;;
62861;SDS011;48953;53.110;5.592;2023-05-07T08:47:55;20.30;;;16.20;;
62861;SDS011;48953;53.110;5.592;2023-05-07T08:50:20;23.23;;;18.42;;
62861;SDS011;48953;53.110;5.592;2023-05-07T08:52:47;23.70;;;17.42;;
62861;SDS011;48953;53.110;5.592;2023-05-07T08:55:13;23.52;;;17.63;;
62861;SDS011;48953;53.110;5.592;2023-05-07T08:57:40;22.38;;;15.95;;
62861;SDS011;48953;53.110;5.592;2023-05-07T09:00:06;22.70;;;17.40;;
62861;SDS011;48953;53.110;5.592;2023-05-07T09:02:32;21.80;;;17.63;;
62861;SDS011;48953;53.110;5.592;2023-05-07T09:04:58;22.83;;;18.67;;
62861;SDS011;48953;53.110;5.592;2023-05-07T09:07:24;25.02;;;17.95;;
62861;SDS011;48953;53.110;5.592;2023-05-07T09:09:51;20.92;;;17.40;;
62861;SDS011;48953;53.110;5.592;2023-05-07T09:12:18;22.40;;;18.08;;
62861;SDS011;48953;53.110;5.592;2023-05-07T09:14:44;23.70;;;17.67;;
62861;SDS011;48953;53.110;5.592;2023-05-07T09:17:10;24.05;;;18.55;;
62861;SDS011;48953;53.110;5.592;2023-05-07T09:19:36;22.08;;;17.38;;
62861;SDS011;48953;53.110;5.592;2023-05-07T09:22:04;22.33;;;16.15;;
62861;SDS011;48953;53.110;5.592;2023-05-07T09:24:33;21.13;;;16.73;;
62861;SDS011;48953;53.110;5.592;2023-05-07T09:27:01;23.58;;;17.73;;
62861;SDS011;48953;53.110;5.592;2023-05-07T09:29:27;20.45;;;16.65;;
62861;SDS011;48953;53.110;5.592;2023-05-07T09:31:55;23.42;;;17.00;;
62861;SDS011;48953;53.110;5.592;2023-05-07T09:34:21;21.30;;;18.10;;
62861;SDS011;48953;53.110;5.592;2023-05-07T09:36:47;23.05;;;18.25;;
62861;SDS011;48953;53.110;5.592;2023-05-07T09:39:13;24.15;;;17.83;;
62861;SDS011;48953;53.110;5.592;2023-05-07T09:41:46;23.15;;;18.15;;
62861;SDS011;48953;53.110;5.592;2023-05-07T09:44:12;22.63;;;17.17;;
62861;SDS011;48953;53.110;5.592;2023-05-07T09:46:40;20.80;;;17.70;;
62861;SDS011;48953;53.110;5.592;2023-05-07T09:49:07;19.48;;;16.98;;
62861;SDS011;48953;53.110;5.592;2023-05-07T09:51:43;22.55;;;18.55;;
62861;SDS011;48953;53.110;5.592;2023-05-07T09:54:11;20.45;;;16.88;;
62861;SDS011;48953;53.110;5.592;2023-05-07T09:56:37;22.35;;;19.25;;
62861;SDS011;48953;53.110;5.592;2023-05-07T09:59:03;24.95;;;18.95;;
62861;SDS011;48953;53.110;5.592;2023-05-07T10:01:31;26.25;;;20.15;;
62861;SDS011;48953;53.110;5.592;2023-05-07T10:03:57;22.88;;;17.65;;
62861;SDS011;48953;53.110;5.592;2023-05-07T10:06:24;22.33;;;17.48;;
62861;SDS011;48953;53.110;5.592;2023-05-07T10:08:50;25.95;;;19.02;;
62861;SDS011;48953;53.110;5.592;2023-05-07T10:11:17;21.40;;;17.67;;
62861;SDS011;48953;53.110;5.592;2023-05-07T10:13:43;24.05;;;18.40;;
62861;SDS011;48953;53.110;5.592;2023-05-07T10:16:09;25.02;;;18.45;;
62861;SDS011;48953;53.110;5.592;2023-05-07T10:18:36;23.15;;;18.92;;
62861;SDS011;48953;53.110;5.592;2023-05-07T10:21:15;26.73;;;19.75;;
62861;SDS011;48953;53.110;5.592;2023-05-07T10:23:43;23.80;;;19.30;;
62861;SDS011;48953;53.110;5.592;2023-05-07T10:26:11;24.20;;;19.88;;
62861;SDS011;48953;53.110;5.592;2023-05-07T10:28:38;23.35;;;18.42;;
62861;SDS011;48953;53.110;5.592;2023-05-07T10:31:18;24.58;;;18.63;;
62861;SDS011;48953;53.110;5.592;2023-05-07T10:33:47;23.52;;;17.77;;
62861;SDS011;48953;53.110;5.592;2023-05-07T10:36:15;24.88;;;19.83;;
62861;SDS011;48953;53.110;5.592;2023-05-07T10:38:41;23.35;;;18.48;;
62861;SDS011;48953;53.110;5.592;2023-05-07T10:41:07;22.88;;;18.73;;
62861;SDS011;48953;53.110;5.592;2023-05-07T10:43:39;23.85;;;19.80;;
62861;SDS011;48953;53.110;5.592;2023-05-07T10:46:16;24.85;;;18.17;;
62861;SDS011;48953;53.110;5.592;2023-05-07T10:51:33;27.15;;;19.58;;
62861;SDS011;48953;53.110;5.592;2023-05-07T11:01:56;21.42;;;17.08;;
62861;SDS011;48953;53.110;5.592;2023-05-07T11:04:23;22.50;;;18.83;;
62861;SDS011;48953;53.110;5.592;2023-05-07T11:15:01;27.25;;;19.98;;
62861;SDS011;48953;53.110;5.592;2023-05-07T11:17:28;25.95;;;19.83;;
62861;SDS011;48953;53.110;5.592;2023-05-07T11:19:56;25.02;;;17.95;;
62861;SDS011;48953;53.110;5.592;2023-05-07T11:25:01;23.95;;;18.05;;
62861;SDS011;48953;53.110;5.592;2023-05-07T11:27:27;27.00;;;20.13;;
62861;SDS011;48953;53.110;5.592;2023-05-07T11:29:56;25.92;;;19.15;;
62861;SDS011;48953;53.110;5.592;2023-05-07T11:32:27;26.80;;;20.20;;
62861;SDS011;48953;53.110;5.592;2023-05-07T11:34:54;23.00;;;18.58;;
62861;SDS011;48953;53.110;5.592;2023-05-07T11:37:20;24.88;;;19.85;;
62861;SDS011;48953;53.110;5.592;2023-05-07T11:39:47;24.88;;;19.45;;
62861;SDS011;48953;53.110;5.592;2023-05-07T11:42:35;24.73;;;18.88;;
62861;SDS011;48953;53.110;5.592;2023-05-07T11:45:06;24.30;;;19.98;;
62861;SDS011;48953;53.110;5.592;2023-05-07T11:47:33;25.27;;;20.10;;
62861;SDS011;48953;53.110;5.592;2023-05-07T11:50:03;24.83;;;19.63;;
62861;SDS011;48953;53.110;5.592;2023-05-07T11:52:30;24.45;;;18.75;;
62861;SDS011;48953;53.110;5.592;2023-05-07T11:54:57;24.35;;;19.13;;
62861;SDS011;48953;53.110;5.592;2023-05-07T11:57:25;24.63;;;18.90;;
62861;SDS011;48953;53.110;5.592;2023-05-07T11:59:58;26.30;;;19.70;;
62861;SDS011;48953;53.110;5.592;2023-05-07T12:02:24;27.77;;;19.60;;
62861;SDS011;48953;53.110;5.592;2023-05-07T12:04:51;26.10;;;18.92;;
62861;SDS011;48953;53.110;5.592;2023-05-07T12:07:17;23.08;;;18.65;;
62861;SDS011;48953;53.110;5.592;2023-05-07T12:09:43;24.95;;;19.50;;
62861;SDS011;48953;53.110;5.592;2023-05-07T12:12:10;25.73;;;19.45;;
62861;SDS011;48953;53.110;5.592;2023-05-07T12:14:43;22.95;;;19.15;;
62861;SDS011;48953;53.110;5.592;2023-05-07T12:17:10;24.85;;;18.45;;
62861;SDS011;48953;53.110;5.592;2023-05-07T12:19:36;23.10;;;17.65;;
62861;SDS011;48953;53.110;5.592;2023-05-07T12:22:03;22.05;;;17.50;;
62861;SDS011;48953;53.110;5.592;2023-05-07T12:24:41;24.60;;;18.70;;
62861;SDS011;48953;53.110;5.592;2023-05-07T12:27:07;22.27;;;17.10;;
62861;SDS011;48953;53.110;5.592;2023-05-07T12:29:34;25.63;;;18.80;;
62861;SDS011;48953;53.110;5.592;2023-05-07T12:32:00;24.88;;;19.05;;
62861;SDS011;48953;53.110;5.592;2023-05-07T12:34:26;21.67;;;17.45;;
62861;SDS011;48953;53.110;5.592;2023-05-07T12:36:53;22.85;;;18.63;;
62861;SDS011;48953;53.110;5.592;2023-05-07T12:39:19;23.02;;;17.38;;
62861;SDS011;48953;53.110;5.592;2023-05-07T12:41:52;22.88;;;17.63;;
62861;SDS011;48953;53.110;5.592;2023-05-07T12:44:19;23.27;;;18.52;;
62861;SDS011;48953;53.110;5.592;2023-05-07T12:46:46;23.27;;;15.52;;
62861;SDS011;48953;53.110;5.592;2023-05-07T12:49:12;23.83;;;16.52;;
62861;SDS011;48953;53.110;5.592;2023-05-07T12:51:38;22.05;;;18.58;;
62861;SDS011;48953;53.110;5.592;2023-05-07T12:54:04;22.92;;;16.98;;
62861;SDS011;48953;53.110;5.592;2023-05-07T12:56:31;21.25;;;16.40;;
62861;SDS011;48953;53.110;5.592;2023-05-07T12:59:00;22.40;;;17.42;;
62861;SDS011;48953;53.110;5.592;2023-05-07T13:01:29;23.27;;;17.23;;
62861;SDS011;48953;53.110;5.592;2023-05-07T13:03:56;22.63;;;17.35;;
62861;SDS011;48953;53.110;5.592;2023-05-07T13:08:51;22.45;;;17.85;;
62861;SDS011;48953;53.110;5.592;2023-05-07T13:11:17;21.70;;;16.98;;
62861;SDS011;48953;53.110;5.592;2023-05-07T13:13:43;24.25;;;17.95;;
62861;SDS011;48953;53.110;5.592;2023-05-07T13:16:10;20.00;;;15.10;;
62861;SDS011;48953;53.110;5.592;2023-05-07T13:18:37;20.63;;;17.02;;
62861;SDS011;48953;53.110;5.592;2023-05-07T13:21:03;21.25;;;17.00;;
62861;SDS011;48953;53.110;5.592;2023-05-07T13:23:29;24.27;;;17.98;;
62861;SDS011;48953;53.110;5.592;2023-05-07T13:25:55;25.05;;;19.23;;
62861;SDS011;48953;53.110;5.592;2023-05-07T13:28:22;21.45;;;17.40;;
62861;SDS011;48953;53.110;5.592;2023-05-07T13:30:48;24.23;;;18.88;;
62861;SDS011;48953;53.110;5.592;2023-05-07T13:33:14;21.17;;;17.17;;
62861;SDS011;48953;53.110;5.592;2023-05-07T13:35:47;21.58;;;18.48;;
62861;SDS011;48953;53.110;5.592;2023-05-07T13:38:13;22.67;;;17.55;;
62861;SDS011;48953;53.110;5.592;2023-05-07T13:40:41;22.80;;;18.13;;
62861;SDS011;48953;53.110;5.592;2023-05-07T13:43:11;21.95;;;17.95;;
62861;SDS011;48953;53.110;5.592;2023-05-07T13:45:37;19.80;;;16.58;;
62861;SDS011;48953;53.110;5.592;2023-05-07T13:48:03;19.25;;;15.45;;
62861;SDS011;48953;53.110;5.592;2023-05-07T13:50:29;20.20;;;16.13;;
62861;SDS011;48953;53.110;5.592;2023-05-07T13:52:55;19.90;;;16.73;;
62861;SDS011;48953;53.110;5.592;2023-05-07T13:55:21;18.98;;;16.05;;
62861;SDS011;48953;53.110;5.592;2023-05-07T13:57:51;21.02;;;17.38;;
62861;SDS011;48953;53.110;5.592;2023-05-07T14:00:20;20.40;;;16.73;;
62861;SDS011;48953;53.110;5.592;2023-05-07T14:02:46;22.33;;;15.45;;
62861;SDS011;48953;53.110;5.592;2023-05-07T14:05:12;18.00;;;15.90;;
62861;SDS011;48953;53.110;5.592;2023-05-07T14:07:38;20.10;;;16.15;;
62861;SDS011;48953;53.110;5.592;2023-05-07T14:10:04;20.80;;;15.90;;
62861;SDS011;48953;53.110;5.592;2023-05-07T14:12:31;17.83;;;14.50;;
62861;SDS011;48953;53.110;5.592;2023-05-07T14:14:57;18.67;;;15.00;;
62861;SDS011;48953;53.110;5.592;2023-05-07T14:17:23;18.92;;;14.38;;
62861;SDS011;48953;53.110;5.592;2023-05-07T14:19:52;16.88;;;14.43;;
62861;SDS011;48953;53.110;5.592;2023-05-07T14:22:22;16.98;;;12.48;;
62861;SDS011;48953;53.110;5.592;2023-05-07T14:24:49;16.75;;;14.18;;
62861;SDS011;48953;53.110;5.592;2023-05-07T14:27:16;17.77;;;13.82;;
62861;SDS011;48953;53.110;5.592;2023-05-07T14:29:42;15.95;;;13.35;;
62861;SDS011;48953;53.110;5.592;2023-05-07T14:32:08;16.42;;;13.18;;
62861;SDS011;48953;53.110;5.592;2023-05-07T14:34:34;16.88;;;13.27;;
62861;SDS011;48953;53.110;5.592;2023-05-07T14:37:06;16.00;;;12.93;;
62861;SDS011;48953;53.110;5.592;2023-05-07T14:39:32;15.38;;;13.13;;
62861;SDS011;48953;53.110;5.592;2023-05-07T14:41:58;15.57;;;12.95;;
62861;SDS011;48953;53.110;5.592;2023-05-07T14:44:24;15.48;;;12.55;;